Portada
METAR-TAF:

METAR-TAF

Aeroports :

Surat Thani, Tailàndia

latitud: 09-07N, longitud: 099-21E, altitud: 10 m

Observació

L'informe es va fer fa 46 minuts, a les 02:00 UTC
Vent 5 kt del Est/Nord-Est, variant entre Nord-Est i Est/Sud-Est
Temperatura 28°C
Humitat 79%
Pressió 1013 hPa
Visibilitat 10 km o més
Escasses núvols a una alçada de 2000 ft

METAR: VTSB 050200Z 07005KT 040V120 9999 FEW020 28/24 Q1013

Hora: 09:46 (02:46 UTC)

Pronòstic

L'informe es va fer fa 3 hores i 46 minuts, a les 23:00 UTC
Pronòstic vàlid del 05 a les 00 UTC al 05 a les 24 UTC
Vent 3 kt del Nord
Visibilitat 10 km o més
Escasses núvols a una alçada de 2000 ft
Evolucionant progressivament
l' 05 a les 03 UTC al 05 a les 05 UTC
Vent 15 kt del Nord-Est
Evolucionant progressivament
l' 05 a les 14 UTC al 05 a les 16 UTC
Vent 3 kt del Nord

TAF: VTSB 042300Z 0500/0524 35003KT 9999 FEW020 BECMG 0503/0505 05015KT BECMG 0514/0516 35003KT

Observacions i pronòstics meteorològics de més de 4000 aeroports (METAR i TAF).

Les estacions disponibles són els punts grocs i vermells al mapa.

Posi el ratolí al punt desitjat per veure el nom de l'estació.

Feu clic per veure les observacions i els pronòstics meteorològics.

Per canviar el mapa: feu clic els botons verds amb una creu de color negre per apropar; al botó verd amb un guió per allunyar la imatge; o en les fletxes verdes per a mapes adjacents.


METAR-TAF: